createdAt,value
2023-02-14T00:00:33.619Z,21
2023-02-14T00:01:36.172Z,20.8
2023-02-14T00:02:38.463Z,20.7
2023-02-14T00:03:41.421Z,20.8
2023-02-14T00:04:44.020Z,20.9
2023-02-14T00:05:46.533Z,20.6
2023-02-14T00:06:49.071Z,20.6
2023-02-14T00:07:51.602Z,20.9
2023-02-14T00:08:54.386Z,20.4
2023-02-14T00:09:56.613Z,20.8
2023-02-14T00:10:59.404Z,20.9
2023-02-14T00:12:02.628Z,20.6
2023-02-14T00:13:04.860Z,21
2023-02-14T00:14:07.086Z,20.7
2023-02-14T00:15:09.585Z,21
2023-02-14T00:16:11.869Z,20.6
2023-02-14T00:17:14.732Z,20.8
2023-02-14T00:18:19.471Z,20.9
2023-02-14T00:19:22.206Z,20.7
2023-02-14T00:20:24.455Z,20.7
2023-02-14T00:21:26.673Z,20.7
2023-02-14T00:22:29.200Z,20.6
2023-02-14T00:23:31.696Z,20.6
2023-02-14T00:24:33.920Z,20.7
2023-02-14T00:25:35.879Z,20.7
2023-02-14T00:26:38.495Z,20.8
2023-02-14T00:27:40.951Z,20.8
2023-02-14T00:28:43.531Z,20.6
2023-02-14T00:29:45.748Z,20.9
2023-02-14T00:30:48.428Z,20.9
2023-02-14T00:31:50.960Z,20.8
2023-02-14T00:32:53.885Z,20.8
2023-02-14T00:33:56.384Z,20.6
2023-02-14T00:34:58.908Z,20.8
2023-02-14T00:36:01.189Z,20.8
2023-02-14T00:37:03.682Z,20.9
2023-02-14T00:38:06.126Z,20.9
2023-02-14T00:39:08.655Z,20.9
2023-02-14T00:40:11.014Z,21
2023-02-14T00:41:13.267Z,20.9
2023-02-14T00:42:15.820Z,21.1
2023-02-14T00:43:18.056Z,21.1
2023-02-14T00:44:20.316Z,21
2023-02-14T00:45:22.821Z,21
2023-02-14T00:46:25.575Z,21.1
2023-02-14T00:47:27.842Z,20.8
2023-02-14T00:48:30.171Z,21
2023-02-14T00:49:32.675Z,20.8
2023-02-14T00:50:34.906Z,21.1
2023-02-14T00:51:37.393Z,21.1
2023-02-14T00:52:39.901Z,20.9
2023-02-14T00:53:42.408Z,21.1
2023-02-14T00:54:44.935Z,21
2023-02-14T00:55:47.474Z,20.9
2023-02-14T00:56:49.757Z,21
2023-02-14T00:57:51.769Z,20.8
2023-02-14T00:58:54.042Z,21.2
2023-02-14T00:59:56.579Z,21
2023-02-14T01:00:59.330Z,21.2
2023-02-14T01:02:03.476Z,21.1
2023-02-14T01:03:06.453Z,21
2023-02-14T01:04:09.059Z,21.2
2023-02-14T01:05:11.554Z,21.1
2023-02-14T01:06:13.795Z,21
2023-02-14T01:07:16.318Z,21.2
2023-02-14T01:08:18.839Z,21.2
2023-02-14T01:09:21.332Z,21.1
2023-02-14T01:10:23.001Z,21.2
2023-02-14T01:11:25.526Z,21.2
2023-02-14T01:12:31.367Z,21.3
2023-02-14T01:13:33.918Z,21.1
2023-02-14T01:14:36.440Z,21.2
2023-02-14T01:15:38.920Z,21
2023-02-14T01:16:41.454Z,21
2023-02-14T01:17:43.657Z,21.3
2023-02-14T01:18:46.344Z,21.1
2023-02-14T01:19:48.939Z,20.8
2023-02-14T01:20:51.167Z,21
2023-02-14T01:21:53.381Z,21.1
2023-02-14T01:22:55.367Z,21.3
2023-02-14T01:23:57.287Z,21.2
2023-02-14T01:24:59.776Z,21.1
2023-02-14T01:26:02.308Z,21
2023-02-14T01:27:04.512Z,21.1
2023-02-14T01:28:06.718Z,21.2
2023-02-14T01:29:09.035Z,21.2
2023-02-14T01:30:11.560Z,21.2
2023-02-14T01:31:14.627Z,21.2
2023-02-14T01:32:17.978Z,21
2023-02-14T01:33:20.988Z,21.1
2023-02-14T01:34:23.530Z,21.2
2023-02-14T01:35:26.103Z,21.3
2023-02-14T01:36:28.385Z,21.2
2023-02-14T01:37:30.876Z,21.2
2023-02-14T01:38:33.391Z,21
2023-02-14T01:39:35.607Z,20.9
2023-02-14T01:40:38.103Z,21.2
2023-02-14T01:41:40.315Z,21.1
2023-02-14T01:42:42.575Z,21.1
2023-02-14T01:43:45.090Z,21.1
2023-02-14T01:44:47.376Z,21.2
2023-02-14T01:45:49.663Z,21
2023-02-14T01:46:52.354Z,21.2
2023-02-14T01:47:54.856Z,21.3
2023-02-14T01:48:57.384Z,21.2
2023-02-14T01:49:59.354Z,21
2023-02-14T01:51:02.205Z,21.1
2023-02-14T01:52:04.822Z,21.1
2023-02-14T01:53:07.040Z,21
2023-02-14T01:54:09.269Z,21.2
2023-02-14T01:55:11.191Z,21.2
2023-02-14T01:56:13.479Z,21.2
2023-02-14T01:57:16.016Z,21.1
2023-02-14T01:58:18.255Z,21.2
2023-02-14T01:59:20.485Z,21.1
2023-02-14T02:00:22.767Z,21
2023-02-14T02:01:25.341Z,21.1
2023-02-14T02:02:28.415Z,21.3
2023-02-14T02:03:31.219Z,21.1
2023-02-14T02:04:33.708Z,21
2023-02-14T02:05:36.281Z,21.2
2023-02-14T02:06:38.824Z,21.3
2023-02-14T02:07:41.320Z,21.1
2023-02-14T02:08:43.535Z,21.1
2023-02-14T02:09:45.488Z,21
2023-02-14T02:10:48.003Z,21
2023-02-14T02:11:50.216Z,21.1
2023-02-14T02:12:52.873Z,21.2
2023-02-14T02:13:55.412Z,21.2
2023-02-14T02:14:57.909Z,21.1
2023-02-14T02:16:00.549Z,21.2
2023-02-14T02:17:02.606Z,21.4
2023-02-14T02:18:05.132Z,21.3
2023-02-14T02:19:07.627Z,21.3
2023-02-14T02:20:09.853Z,21.3
2023-02-14T02:21:12.419Z,21.2
2023-02-14T02:22:14.739Z,21.1
2023-02-14T02:23:16.967Z,21.3
2023-02-14T02:24:19.483Z,21.3
2023-02-14T02:25:21.965Z,21.2
2023-02-14T02:26:24.474Z,21.2
2023-02-14T02:27:26.965Z,21.3
2023-02-14T02:28:29.171Z,21.3
2023-02-14T02:29:31.697Z,21.2
2023-02-14T02:30:34.420Z,21.2
2023-02-14T02:31:38.223Z,21.1
2023-02-14T02:32:41.336Z,21.2
2023-02-14T02:33:43.275Z,21.2
2023-02-14T02:34:45.496Z,21.3
2023-02-14T02:35:48.012Z,21.1
2023-02-14T02:36:50.269Z,21.2
2023-02-14T02:37:52.831Z,21.2
2023-02-14T02:38:55.088Z,21.1
2023-02-14T02:39:57.060Z,21.1
2023-02-14T02:40:59.246Z,21.3
2023-02-14T02:42:03.222Z,21.3
2023-02-14T02:43:05.705Z,21.3
2023-02-14T02:44:08.224Z,21
2023-02-14T02:45:10.749Z,21.2
2023-02-14T02:46:13.334Z,21.3
2023-02-14T02:47:16.301Z,21.3
2023-02-14T02:48:18.518Z,21.3
2023-02-14T02:49:21.029Z,21.3
2023-02-14T02:50:23.244Z,21.3
2023-02-14T02:51:25.768Z,21.2
2023-02-14T02:52:28.016Z,21.2
2023-02-14T02:53:30.291Z,21.2
2023-02-14T02:54:32.801Z,21.1
2023-02-14T02:55:35.301Z,21.3
2023-02-14T02:56:37.797Z,21.1
2023-02-14T02:57:39.768Z,21.3
2023-02-14T02:58:42.249Z,21.3
2023-02-14T02:59:43.920Z,21.1
2023-02-14T03:00:46.168Z,21.3
2023-02-14T03:01:48.404Z,21
2023-02-14T03:02:51.454Z,21.3
2023-02-14T03:03:53.942Z,21.2
2023-02-14T03:04:56.332Z,21.3
2023-02-14T03:05:59.210Z,21.1
2023-02-14T03:07:01.420Z,21.1
2023-02-14T03:08:03.958Z,21.1
2023-02-14T03:09:06.519Z,21.2
2023-02-14T03:10:08.736Z,21.3
2023-02-14T03:11:11.257Z,21.2
2023-02-14T03:12:13.451Z,21.3
2023-02-14T03:13:15.939Z,21.2
2023-02-14T03:14:17.858Z,21.2
2023-02-14T03:15:20.334Z,21.4
2023-02-14T03:16:22.284Z,21.4
2023-02-14T03:17:24.550Z,21.2
2023-02-14T03:18:26.833Z,21.3
2023-02-14T03:19:29.066Z,21.2
2023-02-14T03:20:31.276Z,21.4
2023-02-14T03:21:33.800Z,21.4
2023-02-14T03:22:35.749Z,21.3
2023-02-14T03:23:38.257Z,21.2
2023-02-14T03:24:40.821Z,21.2
2023-02-14T03:25:43.323Z,21.3
2023-02-14T03:26:45.259Z,21.3
2023-02-14T03:27:47.493Z,21.3
2023-02-14T03:28:49.707Z,21.3
2023-02-14T03:29:52.293Z,21.3
2023-02-14T03:30:55.189Z,21.2
2023-02-14T03:31:58.926Z,21.5
2023-02-14T03:33:02.447Z,21.5
2023-02-14T03:34:05.058Z,21.4
2023-02-14T03:35:07.590Z,21.4
2023-02-14T03:36:10.159Z,21.3
2023-02-14T03:37:12.660Z,21.4
2023-02-14T03:38:14.914Z,21.3
2023-02-14T03:39:17.142Z,21.4
2023-02-14T03:40:19.682Z,21.4
2023-02-14T03:41:21.907Z,21.3
2023-02-14T03:42:24.147Z,21.3
2023-02-14T03:43:26.364Z,21.3
2023-02-14T03:44:28.599Z,21.4
2023-02-14T03:45:30.886Z,21.4
2023-02-14T03:46:33.532Z,21.2
2023-02-14T03:47:35.995Z,21.3
2023-02-14T03:48:38.231Z,21.5
2023-02-14T03:49:40.503Z,21.3
2023-02-14T03:50:42.989Z,21.4
2023-02-14T03:51:45.228Z,21.2
2023-02-14T03:52:47.740Z,21.4
2023-02-14T03:53:50.236Z,21.3
2023-02-14T03:54:52.823Z,21.3
2023-02-14T03:55:55.568Z,21.4
2023-02-14T03:56:58.151Z,21.4
2023-02-14T03:58:00.116Z,21.3
2023-02-14T03:59:02.392Z,21.6
2023-02-14T04:00:04.629Z,21.4
2023-02-14T04:01:07.246Z,21.3
2023-02-14T04:02:09.769Z,21.4
2023-02-14T04:03:12.393Z,21.4
2023-02-14T04:04:15.325Z,21.2
2023-02-14T04:05:17.879Z,21.4
2023-02-14T04:06:20.370Z,21.2
2023-02-14T04:07:22.329Z,21.3
2023-02-14T04:08:24.869Z,21.4
2023-02-14T04:09:27.413Z,21.4
2023-02-14T04:10:29.670Z,21.5
2023-02-14T04:11:32.219Z,21.4
2023-02-14T04:12:37.867Z,21.2
2023-02-14T04:13:39.434Z,21.4
2023-02-14T04:14:41.651Z,21.3
2023-02-14T04:15:43.671Z,21.3
2023-02-14T04:16:46.193Z,21.2
2023-02-14T04:17:48.429Z,21.3
2023-02-14T04:18:50.393Z,21.3
2023-02-14T04:19:52.889Z,21.3
2023-02-14T04:20:55.169Z,21
2023-02-14T04:21:58.120Z,21.1
2023-02-14T04:23:03.011Z,21.1
2023-02-14T04:24:05.629Z,21.4
2023-02-14T04:25:08.147Z,21.2
2023-02-14T04:26:10.475Z,21.1
2023-02-14T04:27:12.756Z,21.3
2023-02-14T04:28:14.977Z,21
2023-02-14T04:29:17.177Z,21
2023-02-14T04:30:19.457Z,20.9
2023-02-14T04:31:22.446Z,21.1
2023-02-14T04:32:25.417Z,21
2023-02-14T04:33:28.387Z,21
2023-02-14T04:34:30.643Z,21
2023-02-14T04:35:33.160Z,20.9
2023-02-14T04:36:35.456Z,21
2023-02-14T04:37:37.676Z,21
2023-02-14T04:38:39.915Z,21.1
2023-02-14T04:39:41.868Z,21.1
2023-02-14T04:40:44.388Z,21.1
2023-02-14T04:41:46.946Z,21
2023-02-14T04:42:49.519Z,21
2023-02-14T04:43:51.776Z,21.2
2023-02-14T04:44:54.300Z,21.1
2023-02-14T04:45:56.516Z,21
2023-02-14T04:46:58.745Z,21
2023-02-14T04:48:00.961Z,20.9
2023-02-14T04:49:03.513Z,21
2023-02-14T04:50:05.741Z,20.9
2023-02-14T04:51:08.292Z,21
2023-02-14T04:52:10.912Z,21.2
2023-02-14T04:53:13.404Z,20.9
2023-02-14T04:54:15.630Z,21.1
2023-02-14T04:55:18.120Z,20.9
2023-02-14T04:56:20.336Z,21
2023-02-14T04:57:22.897Z,21
2023-02-14T04:58:25.459Z,21.1
2023-02-14T04:59:27.429Z,21.2
2023-02-14T05:00:29.983Z,20.9
2023-02-14T05:01:32.736Z,21.1
2023-02-14T05:02:35.233Z,21.1
2023-02-14T05:03:37.486Z,20.8
2023-02-14T05:04:39.703Z,20.8
2023-02-14T05:05:42.194Z,21.1
2023-02-14T05:06:44.411Z,20.9
2023-02-14T05:07:46.940Z,21.1
2023-02-14T05:08:49.597Z,21.1
2023-02-14T05:09:52.117Z,21
2023-02-14T05:10:53.803Z,20.9
2023-02-14T05:11:56.223Z,20.7
2023-02-14T05:12:58.555Z,20.9
2023-02-14T05:14:00.800Z,20.9
2023-02-14T05:15:03.025Z,20.9
2023-02-14T05:16:05.535Z,20.9
2023-02-14T05:17:08.330Z,21
2023-02-14T05:18:10.825Z,20.8
2023-02-14T05:19:13.283Z,20.8
2023-02-14T05:20:15.797Z,20.8
2023-02-14T05:21:18.313Z,20.8
2023-02-14T05:22:20.836Z,20.8
2023-02-14T05:23:23.398Z,20.9
2023-02-14T05:24:25.635Z,20.9
2023-02-14T05:25:28.138Z,20.8
2023-02-14T05:26:30.644Z,20.7
2023-02-14T05:27:32.830Z,20.8
2023-02-14T05:28:35.371Z,20.7
2023-02-14T05:29:37.937Z,21
2023-02-14T05:30:40.644Z,20.7
2023-02-14T05:31:43.905Z,20.9
2023-02-14T05:32:45.811Z,21
2023-02-14T05:33:48.034Z,20.9
2023-02-14T05:34:50.317Z,20.9
2023-02-14T05:35:52.535Z,20.9
2023-02-14T05:36:55.073Z,20.9
2023-02-14T05:37:57.334Z,20.6
2023-02-14T05:39:00.037Z,20.9
2023-02-14T05:40:02.537Z,20.8
2023-02-14T05:41:05.044Z,21
2023-02-14T05:43:09.225Z,20.9
2023-02-14T05:44:11.543Z,20.8
2023-02-14T05:45:14.104Z,20.8
2023-02-14T05:46:16.603Z,20.9
2023-02-14T05:47:19.106Z,20.9
2023-02-14T05:48:21.595Z,20.7
2023-02-14T05:49:24.103Z,20.9
2023-02-14T05:50:26.628Z,20.8
2023-02-14T05:51:29.131Z,21
2023-02-14T05:52:32.066Z,20.9
2023-02-14T05:53:34.704Z,20.9
2023-02-14T05:54:37.072Z,20.8
2023-02-14T05:55:39.298Z,20.7
2023-02-14T05:56:41.534Z,21
2023-02-14T05:57:44.127Z,20.8
2023-02-14T05:58:46.643Z,21.1
2023-02-14T05:59:49.173Z,21
2023-02-14T06:00:51.775Z,20.8
2023-02-14T06:01:53.811Z,21
2023-02-14T06:02:56.038Z,20.7
2023-02-14T06:03:57.985Z,21
2023-02-14T06:05:00.730Z,21.2
2023-02-14T06:06:03.329Z,20.7
2023-02-14T06:07:05.823Z,20.9
2023-02-14T06:08:08.058Z,20.8
2023-02-14T06:09:10.635Z,20.7
2023-02-14T06:10:13.186Z,21
2023-02-14T06:11:15.685Z,20.9
2023-02-14T06:12:18.193Z,21
2023-02-14T06:13:20.429Z,20.9
2023-02-14T06:14:22.968Z,21
2023-02-14T06:15:25.234Z,20.8
2023-02-14T06:16:27.573Z,21
2023-02-14T06:17:30.333Z,21
2023-02-14T06:18:32.885Z,20.8
2023-02-14T06:19:35.398Z,20.8
2023-02-14T06:20:37.883Z,20.6
2023-02-14T06:21:40.459Z,20.9
2023-02-14T06:22:42.972Z,21
2023-02-14T06:23:45.461Z,20.7
2023-02-14T06:24:47.746Z,20.8
2023-02-14T06:25:50.296Z,20.6
2023-02-14T06:26:52.816Z,20.8
2023-02-14T06:27:55.324Z,20.9
2023-02-14T06:28:57.861Z,20.9
2023-02-14T06:29:59.934Z,20.6
2023-02-14T06:31:03.269Z,20.8
2023-02-14T06:32:07.462Z,20.8
2023-02-14T06:33:10.949Z,20.8
2023-02-14T06:34:14.798Z,20.8
2023-02-14T06:35:18.193Z,20.6
2023-02-14T06:36:20.705Z,20.9
2023-02-14T06:37:22.961Z,21
2023-02-14T06:38:25.484Z,21
2023-02-14T06:39:27.731Z,21
2023-02-14T06:40:30.227Z,20.9
2023-02-14T06:41:32.854Z,20.9
2023-02-14T06:42:35.082Z,21
2023-02-14T06:43:37.289Z,20.8
2023-02-14T06:44:39.922Z,20.8
2023-02-14T06:45:42.143Z,20.9
2023-02-14T06:46:44.938Z,20.7
2023-02-14T06:47:47.214Z,20.8
2023-02-14T06:48:49.714Z,20.9
2023-02-14T06:49:51.968Z,21
2023-02-14T06:50:54.478Z,21
2023-02-14T06:51:56.443Z,20.9
2023-02-14T06:52:58.412Z,20.7
2023-02-14T06:54:00.721Z,21
2023-02-14T06:55:03.320Z,20.9
2023-02-14T06:56:05.849Z,21
2023-02-14T06:57:08.426Z,20.9
2023-02-14T06:58:10.669Z,20.8
2023-02-14T06:59:13.217Z,20.9
2023-02-14T07:00:15.465Z,20.7
2023-02-14T07:01:17.517Z,20.6
2023-02-14T07:02:21.760Z,20.8
2023-02-14T07:03:26.930Z,21.2
2023-02-14T07:04:29.197Z,20.6
2023-02-14T07:05:31.455Z,20.9
2023-02-14T07:06:33.402Z,20.9
2023-02-14T07:07:35.908Z,20.8
2023-02-14T07:08:37.843Z,20.7
2023-02-14T07:09:40.101Z,20.6
2023-02-14T07:10:42.042Z,20.7
2023-02-14T07:11:44.266Z,20.7
2023-02-14T07:12:46.872Z,20.8
2023-02-14T07:13:49.636Z,20.7
2023-02-14T07:14:52.221Z,20.7
2023-02-14T07:15:54.801Z,20.9
2023-02-14T07:16:57.820Z,20.8
2023-02-14T07:18:00.171Z,20.7
2023-02-14T07:19:02.778Z,21
2023-02-14T07:20:05.307Z,20.8
2023-02-14T07:21:07.533Z,20.7
2023-02-14T07:22:09.755Z,21
2023-02-14T07:23:12.081Z,20.9
2023-02-14T07:24:14.633Z,20.7
2023-02-14T07:25:16.881Z,20.7
2023-02-14T07:26:19.391Z,20.8
2023-02-14T07:27:21.633Z,20.5
2023-02-14T07:28:24.298Z,20.9
2023-02-14T07:29:26.858Z,20.6
2023-02-14T07:30:28.965Z,21
2023-02-14T07:31:32.233Z,20.8
2023-02-14T07:32:35.249Z,20.8
2023-02-14T07:33:37.782Z,20.8
2023-02-14T07:34:40.362Z,20.7
2023-02-14T07:35:42.053Z,20.7
2023-02-14T07:36:44.283Z,20.7
2023-02-14T07:37:46.783Z,20.6
2023-02-14T07:38:48.991Z,20.8
2023-02-14T07:39:51.521Z,20.7
2023-02-14T07:40:53.798Z,20.6
2023-02-14T07:41:55.254Z,20.8
2023-02-14T07:42:57.505Z,20.8
2023-02-14T07:43:59.802Z,20.8
2023-02-14T07:45:09.582Z,20.9
2023-02-14T07:46:07.066Z,20.6
2023-02-14T07:47:09.826Z,20.9
2023-02-14T07:48:12.050Z,20.8
2023-02-14T07:49:14.347Z,20.8
2023-02-14T07:50:16.917Z,20.9
2023-02-14T07:51:19.173Z,20.5
2023-02-14T07:52:21.679Z,20.8
2023-02-14T07:53:23.903Z,20.7
2023-02-14T07:54:26.157Z,20.8
2023-02-14T07:55:28.143Z,21
2023-02-14T07:56:30.690Z,20.6
2023-02-14T07:57:32.959Z,20.7
2023-02-14T07:58:35.196Z,20.4
2023-02-14T07:59:37.488Z,20.6
2023-02-14T08:00:40.013Z,20.8
2023-02-14T08:01:42.259Z,20.8
2023-02-14T08:02:44.853Z,20.8
2023-02-14T08:03:46.837Z,20.5
2023-02-14T08:04:49.478Z,20.7
2023-02-14T08:05:52.105Z,20.5
2023-02-14T08:06:54.690Z,20.9
2023-02-14T08:07:56.970Z,21
2023-02-14T08:08:59.336Z,20.8
2023-02-14T08:10:01.876Z,21
2023-02-14T08:11:04.143Z,20.8
2023-02-14T08:12:06.651Z,20.6
2023-02-14T08:13:08.887Z,20.9
2023-02-14T08:14:11.446Z,20.9
2023-02-14T08:15:13.756Z,20.8
2023-02-14T08:16:16.281Z,20.6
2023-02-14T08:17:18.792Z,20.9
2023-02-14T08:18:21.124Z,20.9
2023-02-14T08:19:23.365Z,20.5
2023-02-14T08:20:25.905Z,20.7
2023-02-14T08:21:28.758Z,20.8
2023-02-14T08:22:30.973Z,20.9
2023-02-14T08:23:33.494Z,21
2023-02-14T08:24:36.012Z,20.8
2023-02-14T08:25:38.547Z,20.8
2023-02-14T08:26:41.068Z,20.4
2023-02-14T08:27:43.307Z,21
2023-02-14T08:28:45.830Z,20.9
2023-02-14T08:29:48.095Z,20.8
2023-02-14T08:30:50.666Z,20.6
2023-02-14T08:31:53.890Z,20.9
2023-02-14T08:32:56.883Z,21.1
2023-02-14T08:33:59.666Z,20.9
2023-02-14T08:35:02.203Z,20.7
2023-02-14T08:36:04.802Z,20.7
2023-02-14T08:37:07.444Z,20.9
2023-02-14T08:38:09.678Z,20.9
2023-02-14T08:39:11.926Z,20.6
2023-02-14T08:40:14.413Z,20.6
2023-02-14T08:41:16.714Z,20.7
2023-02-14T08:42:19.270Z,20.6
2023-02-14T08:43:21.780Z,20.5
2023-02-14T08:44:24.050Z,20.9
2023-02-14T08:45:26.374Z,21
2023-02-14T08:46:28.531Z,20.9
2023-02-14T08:47:30.836Z,20.6
2023-02-14T08:48:33.365Z,21.1
2023-02-14T08:49:40.182Z,21
2023-02-14T08:50:42.461Z,20.7
2023-02-14T08:51:44.864Z,20.8
2023-02-14T08:52:47.470Z,20.7
2023-02-14T08:53:50.019Z,20.8
2023-02-14T08:54:52.375Z,20.8
2023-02-14T08:55:54.117Z,20.8
2023-02-14T08:56:56.710Z,20.7
2023-02-14T08:57:58.630Z,20.9
2023-02-14T08:59:01.253Z,20.8
2023-02-14T09:00:03.898Z,20.7
2023-02-14T09:01:06.645Z,20.8
2023-02-14T09:02:09.650Z,20.9
2023-02-14T09:03:12.204Z,21
2023-02-14T09:04:14.717Z,20.7
2023-02-14T09:05:17.312Z,20.7
2023-02-14T09:06:19.856Z,20.7
2023-02-14T09:07:22.580Z,21.1
2023-02-14T09:08:25.260Z,20.9
2023-02-14T09:09:28.285Z,20.7
2023-02-14T09:10:30.792Z,20.9
2023-02-14T09:11:33.496Z,20.9
2023-02-14T09:12:35.652Z,20.9
2023-02-14T09:13:38.199Z,21
2023-02-14T09:14:40.807Z,20.9
2023-02-14T09:15:43.191Z,20.4
2023-02-14T09:16:45.640Z,20.7
2023-02-14T09:17:48.775Z,20.7
2023-02-14T09:18:51.194Z,21.1
2023-02-14T09:19:53.545Z,20.9
2023-02-14T09:20:56.304Z,20.7
2023-02-14T09:22:00.611Z,20.9
2023-02-14T09:23:03.070Z,20.9
2023-02-14T09:24:05.107Z,21
2023-02-14T09:25:07.076Z,20.8
2023-02-14T09:26:09.599Z,20.8
2023-02-14T09:27:12.201Z,21.1
2023-02-14T09:28:14.705Z,20.8
2023-02-14T09:29:17.200Z,20.9
2023-02-14T09:30:19.244Z,21.1
2023-02-14T09:31:21.993Z,20.7
2023-02-14T09:32:24.789Z,20.8
2023-02-14T09:33:27.935Z,20.7
2023-02-14T09:34:29.912Z,20.6
2023-02-14T09:35:32.138Z,21
2023-02-14T09:36:34.427Z,21
2023-02-14T09:37:36.969Z,20.9
2023-02-14T09:38:39.522Z,21
2023-02-14T09:39:42.121Z,20.9
2023-02-14T09:40:44.639Z,20.8
2023-02-14T09:41:46.858Z,20.8
2023-02-14T09:42:49.085Z,20.8
2023-02-14T09:43:51.623Z,20.9
2023-02-14T09:44:53.873Z,20.7
2023-02-14T09:45:56.412Z,20.9
2023-02-14T09:46:59.328Z,20.5
2023-02-14T09:48:01.562Z,20.9
2023-02-14T09:49:03.941Z,20.9
2023-02-14T09:50:06.852Z,20.7
2023-02-14T09:51:09.677Z,20.8
2023-02-14T09:52:11.929Z,20.5
2023-02-14T09:53:18.316Z,20.9
2023-02-14T09:54:20.891Z,20.9
2023-02-14T09:55:23.514Z,20.9
2023-02-14T09:56:25.845Z,20.9
2023-02-14T09:57:27.792Z,20.7
2023-02-14T09:58:30.903Z,20.6
2023-02-14T09:59:32.841Z,20.6
2023-02-14T10:00:35.076Z,20.6
2023-02-14T10:01:37.089Z,20.8
2023-02-14T10:02:39.927Z,20.7
2023-02-14T10:03:42.291Z,20.8
2023-02-14T10:04:44.968Z,20.7
2023-02-14T10:05:47.472Z,21
2023-02-14T10:06:49.987Z,20.9
2023-02-14T10:07:52.219Z,20.8
2023-02-14T10:08:54.727Z,20.8
2023-02-14T10:09:57.013Z,20.7
2023-02-14T10:10:59.865Z,20.9
2023-02-14T10:12:03.009Z,20.9
2023-02-14T10:13:05.572Z,21
2023-02-14T10:14:07.792Z,21
2023-02-14T10:15:10.294Z,20.9
2023-02-14T10:16:12.831Z,20.7
2023-02-14T10:17:15.261Z,20.6
2023-02-14T10:18:17.314Z,20.7
2023-02-14T10:19:19.540Z,20.7
2023-02-14T10:20:21.683Z,20.8
2023-02-14T10:21:24.375Z,20.7
2023-02-14T10:22:26.889Z,20.6
2023-02-14T10:23:29.395Z,20.5
2023-02-14T10:24:31.638Z,21.1
2023-02-14T10:25:33.600Z,21.1
2023-02-14T10:26:36.176Z,20.9
2023-02-14T10:27:38.431Z,20.9
2023-02-14T10:28:41.056Z,20.7
2023-02-14T10:29:43.291Z,20.7
2023-02-14T10:30:45.991Z,20.8
2023-02-14T10:31:49.268Z,20.8
2023-02-14T10:32:52.132Z,20.9
2023-02-14T10:33:57.344Z,20.8
2023-02-14T10:34:59.621Z,20.9
2023-02-14T10:36:02.188Z,20.6
2023-02-14T10:37:04.710Z,20.5
2023-02-14T10:38:06.658Z,20.9
2023-02-14T10:39:08.902Z,20.6
2023-02-14T10:40:11.127Z,20.8
2023-02-14T10:41:13.341Z,20.8
2023-02-14T10:42:15.602Z,20.8
2023-02-14T10:43:18.582Z,20.9
2023-02-14T10:44:21.191Z,20.7
2023-02-14T10:45:23.452Z,20.9
2023-02-14T10:46:26.255Z,20.7
2023-02-14T10:47:28.942Z,20.7
2023-02-14T10:48:31.176Z,20.9
2023-02-14T10:49:33.419Z,20.6
2023-02-14T10:50:35.953Z,20.7
2023-02-14T10:51:38.461Z,20.7
2023-02-14T10:52:41.001Z,20.8
2023-02-14T10:53:43.280Z,20.8
2023-02-14T10:54:45.561Z,20.8
2023-02-14T10:55:48.121Z,20.5
2023-02-14T10:56:50.635Z,20.8
2023-02-14T10:57:53.181Z,21
2023-02-14T10:58:55.726Z,20.8
2023-02-14T10:59:58.392Z,20.7
2023-02-14T11:01:01.500Z,20.8
2023-02-14T11:02:05.497Z,20.7
2023-02-14T11:03:08.162Z,20.7
2023-02-14T11:04:11.085Z,20.5
2023-02-14T11:05:13.074Z,20.6
2023-02-14T11:06:15.327Z,20.8
2023-02-14T11:07:17.893Z,20.6
2023-02-14T11:08:20.663Z,20.5
2023-02-14T11:09:23.278Z,20.7
2023-02-14T11:10:25.622Z,20.8
2023-02-14T11:11:27.928Z,20.7
2023-02-14T11:12:30.461Z,20.6
2023-02-14T11:13:32.692Z,20.9
2023-02-14T11:14:34.966Z,20.7
2023-02-14T11:15:37.618Z,20.7
2023-02-14T11:16:40.175Z,20.7
2023-02-14T11:17:42.669Z,21.1
2023-02-14T11:18:45.180Z,21
2023-02-14T11:19:47.435Z,20.8
2023-02-14T11:20:49.934Z,21
2023-02-14T11:21:52.451Z,20.8
2023-02-14T11:22:54.946Z,20.8
2023-02-14T11:23:57.179Z,21
2023-02-14T11:24:59.672Z,21.1
2023-02-14T11:26:05.643Z,20.9
2023-02-14T11:27:07.858Z,20.8
2023-02-14T11:28:10.058Z,20.7
2023-02-14T11:29:12.581Z,20.6
2023-02-14T11:30:14.877Z,20.8
2023-02-14T11:31:17.826Z,20.7
2023-02-14T11:32:20.827Z,20.9
2023-02-14T11:33:23.054Z,20.9
2023-02-14T11:34:25.288Z,20.8
2023-02-14T11:35:27.899Z,21
2023-02-14T11:36:30.122Z,20.7
2023-02-14T11:37:32.640Z,20.9
2023-02-14T11:38:34.870Z,20.7
2023-02-14T11:39:36.914Z,20.6
2023-02-14T11:40:38.884Z,21
2023-02-14T11:41:40.854Z,20.9
2023-02-14T11:42:43.079Z,20.8
2023-02-14T11:43:45.876Z,20.6
2023-02-14T11:44:48.432Z,21
2023-02-14T11:45:50.682Z,20.7
2023-02-14T11:46:54.014Z,20.8
2023-02-14T11:47:56.734Z,21
2023-02-14T11:48:58.670Z,21.1
2023-02-14T11:50:01.306Z,20.9
2023-02-14T11:51:03.882Z,21
2023-02-14T11:52:06.401Z,20.9
2023-02-14T11:53:11.864Z,20.8
2023-02-14T11:54:14.086Z,20.8
2023-02-14T11:55:16.699Z,20.7
2023-02-14T11:56:19.202Z,21
2023-02-14T11:57:21.444Z,20.7
2023-02-14T11:58:23.662Z,20.7
2023-02-14T11:59:26.163Z,21
2023-02-14T12:00:28.683Z,20.8
2023-02-14T12:01:31.236Z,20.8
2023-02-14T12:02:33.903Z,20.8
2023-02-14T12:03:36.355Z,20.8
2023-02-14T12:04:46.062Z,20.5
2023-02-14T12:05:44.147Z,21.1
2023-02-14T12:06:46.662Z,20.7
2023-02-14T12:07:49.195Z,20.8
2023-02-14T12:08:51.444Z,20.9
2023-02-14T12:09:53.352Z,20.7
2023-02-14T12:10:55.859Z,20.8
2023-02-14T12:11:59.113Z,20.7
2023-02-14T12:13:01.655Z,20.8
2023-02-14T12:14:04.200Z,21
2023-02-14T12:15:06.736Z,20.8
2023-02-14T12:16:09.266Z,20.8
2023-02-14T12:17:12.148Z,20.8
2023-02-14T12:18:14.786Z,20.9
2023-02-14T12:19:17.284Z,20.8
2023-02-14T12:20:19.865Z,20.9
2023-02-14T12:21:22.365Z,20.9
2023-02-14T12:22:25.565Z,20.7
2023-02-14T12:23:30.234Z,20.7
2023-02-14T12:24:32.761Z,20.6
2023-02-14T12:25:35.343Z,20.9
2023-02-14T12:26:37.963Z,20.8
2023-02-14T12:27:40.503Z,20.9
2023-02-14T12:28:43.068Z,21.1
2023-02-14T12:29:45.286Z,21.1
2023-02-14T12:30:47.967Z,20.7
2023-02-14T12:31:50.903Z,20.9
2023-02-14T12:32:54.056Z,20.9
2023-02-14T12:33:56.673Z,20.7
2023-02-14T12:34:59.188Z,20.7
2023-02-14T12:36:01.708Z,20.8
2023-02-14T12:37:04.454Z,20.7
2023-02-14T12:38:06.999Z,20.7
2023-02-14T12:39:09.546Z,20.8
2023-02-14T12:40:12.086Z,21
2023-02-14T12:41:14.622Z,20.7
2023-02-14T12:42:17.179Z,20.8
2023-02-14T12:43:19.707Z,20.8
2023-02-14T12:44:21.642Z,20.7
2023-02-14T12:45:24.168Z,21
2023-02-14T12:47:30.152Z,21
2023-02-14T12:48:32.459Z,20.8
2023-02-14T12:49:35.165Z,21
2023-02-14T12:50:37.703Z,20.7
2023-02-14T12:51:39.947Z,20.9
2023-02-14T12:52:42.166Z,20.7
2023-02-14T12:53:44.696Z,20.9
2023-02-14T12:54:51.088Z,21
2023-02-14T12:55:53.608Z,20.8
2023-02-14T12:56:55.834Z,21
2023-02-14T12:57:58.192Z,20.7
2023-02-14T12:59:00.701Z,20.8
2023-02-14T13:00:03.237Z,20.9
2023-02-14T13:01:05.527Z,20.9
2023-02-14T13:02:08.142Z,20.9
2023-02-14T13:03:10.828Z,20.9
2023-02-14T13:04:13.471Z,20.7
2023-02-14T13:05:16.150Z,20.9
2023-02-14T13:06:18.088Z,20.8
2023-02-14T13:07:20.367Z,21.1
2023-02-14T13:08:22.737Z,20.8
2023-02-14T13:09:25.587Z,20.8
2023-02-14T13:10:28.644Z,20.9
2023-02-14T13:11:31.817Z,20.7
2023-02-14T13:12:34.981Z,20.9
2023-02-14T13:13:38.261Z,20.9
2023-02-14T13:14:40.933Z,20.6
2023-02-14T13:15:43.190Z,20.8
2023-02-14T13:16:46.100Z,20.8
2023-02-14T13:17:48.611Z,20.8
2023-02-14T13:18:51.140Z,20.8
2023-02-14T13:19:53.683Z,20.8
2023-02-14T13:20:56.289Z,20.6
2023-02-14T13:21:59.979Z,21
2023-02-14T13:23:02.504Z,20.7
2023-02-14T13:24:05.032Z,20.4
2023-02-14T13:25:06.986Z,20.6
2023-02-14T13:26:09.491Z,20.8
2023-02-14T13:27:12.124Z,20.8
2023-02-14T13:28:14.353Z,20.8
2023-02-14T13:29:16.851Z,20.8
2023-02-14T13:30:19.465Z,20.7
2023-02-14T13:31:22.400Z,20.9
2023-02-14T13:32:25.467Z,20.9
2023-02-14T13:33:29.301Z,20.8
2023-02-14T13:34:34.818Z,20.9
2023-02-14T13:35:36.599Z,20.9
2023-02-14T13:36:39.207Z,21
2023-02-14T13:37:41.799Z,20.7
2023-02-14T13:38:44.029Z,20.8
2023-02-14T13:39:46.577Z,20.7
2023-02-14T13:40:48.796Z,20.9
2023-02-14T13:41:51.296Z,20.7
2023-02-14T13:42:53.237Z,20.6
2023-02-14T13:43:55.816Z,20.8
2023-02-14T13:44:58.473Z,20.7
2023-02-14T13:46:01.057Z,21
2023-02-14T13:47:03.570Z,20.6
2023-02-14T13:48:05.555Z,20.9
2023-02-14T13:49:08.095Z,20.8
2023-02-14T13:50:10.311Z,21
2023-02-14T13:51:12.925Z,20.9
2023-02-14T13:52:15.535Z,20.8
2023-02-14T13:53:18.037Z,21
2023-02-14T13:54:20.534Z,21
2023-02-14T13:55:22.486Z,20.8
2023-02-14T13:56:25.089Z,20.7
2023-02-14T13:57:28.084Z,20.8
2023-02-14T13:58:32.128Z,20.8
2023-02-14T13:59:34.361Z,20.9
2023-02-14T14:00:36.927Z,20.9
2023-02-14T14:01:39.766Z,20.9